Country
Station

 

Weather  for  Great Bend Automatic Weather Observing/Reporting System  -  United States    United States

  
24 °C (75 °F)
    
 
 

Current METAR for Great Bend Automatic Weather Observing/Reporting System is :

KGBD 171056Z AUTO 05010KT 10SM BKN090 24/21 A3004 RMK AO2 LTG DSNT N-E SLP151 T02440206

 

This is a report for Great Bend Automatic Weather Observing/Reporting System - United States.
 
The report was made 37 minutes ago, at 10:56 UTC .
The wind was blowing at a speed of 5.1 meters per second (11.5 miles per hour) from northeast (050°).
 
The temperature was 24 °C (75 °F), with a dew-point at 21 °C (70 °F).
The temperature felt like 24 °C (75 °F).
 
The atmospheric pressure was 1017 hPa (30.04 inHg).
The relative humidity was 83.3%.
 
There were broken clouds at a height of 2743 meters (9000 feet).
 
The overall visibility was 16.1 kilometers (10.0 miles).
 

 
 
 
 

Country :   A   B   C   D   E   F   G   H   I   J   K   L   M   N   O   P   Q   R   S   T   U   V   W   Y   Z

 

Site Info  |  Disclaimer  |  Credits  |  Privacy
Contact us  |  Add to favorites
© 2013-2018 METARs - All rights reserved